createdAt,value
2023-05-09T00:01:36.354Z,101748.10
2023-05-09T00:04:03.642Z,101746.56
2023-05-09T00:06:30.774Z,101752.88
2023-05-09T00:08:57.938Z,101754.63
2023-05-09T00:11:25.065Z,101754.95
2023-05-09T00:13:52.153Z,101757.48
2023-05-09T00:16:20.839Z,101758.08
2023-05-09T00:18:47.869Z,101756.04
2023-05-09T00:21:14.910Z,101755.73
2023-05-09T00:23:41.896Z,101756.52
2023-05-09T00:26:10.040Z,101756.01
2023-05-09T00:28:37.683Z,101752.44
2023-05-09T00:31:05.723Z,101748.52
2023-05-09T00:33:32.734Z,101752.28
2023-05-09T00:36:00.798Z,101755.04
2023-05-09T00:38:28.715Z,101752.53
2023-05-09T00:40:55.793Z,101756.94
2023-05-09T00:43:22.951Z,101758.79
2023-05-09T00:45:50.088Z,101759.99
2023-05-09T00:48:17.256Z,101759.58
2023-05-09T00:50:44.402Z,101759.52
2023-05-09T00:53:11.416Z,101763.31
2023-05-09T00:55:38.597Z,101762.02
2023-05-09T00:58:05.668Z,101765.20
2023-05-09T01:00:32.720Z,101765.42
2023-05-09T01:02:59.877Z,101766.69
2023-05-09T01:05:46.936Z,101763.90
2023-05-09T01:08:21.471Z,101759.66
2023-05-09T01:10:58.669Z,101767.59
2023-05-09T01:13:33.859Z,101769.02
2023-05-09T01:16:19.288Z,101767.42
2023-05-09T01:18:50.315Z,101774.55
2023-05-09T01:21:24.411Z,101777.38
2023-05-09T01:23:59.626Z,101776.27
2023-05-09T01:26:29.506Z,101776.47
2023-05-09T01:29:26.955Z,101777.99
2023-05-09T01:31:54.010Z,101777.09
2023-05-09T01:34:20.980Z,101777.11
2023-05-09T01:36:47.966Z,101773.09
2023-05-09T01:39:15.020Z,101771.73
2023-05-09T01:41:42.037Z,101770.89
2023-05-09T01:44:11.348Z,101775.14
2023-05-09T01:46:38.438Z,101778.34
2023-05-09T01:49:06.000Z,101778.66
2023-05-09T01:51:33.294Z,101776.16
2023-05-09T01:54:00.328Z,101776.95
2023-05-09T01:56:27.343Z,101778.36
2023-05-09T01:58:55.822Z,101779.19
2023-05-09T02:01:22.909Z,101776.46
2023-05-09T02:03:52.690Z,101775.94
2023-05-09T02:06:21.021Z,101784.63
2023-05-09T02:08:48.300Z,101786.77
2023-05-09T02:11:15.311Z,101787.11
2023-05-09T02:13:42.263Z,101785.70
2023-05-09T02:16:10.497Z,101786.42
2023-05-09T02:18:37.528Z,101778.23
2023-05-09T02:21:04.484Z,101779.42
2023-05-09T02:23:31.475Z,101775.98
2023-05-09T02:25:58.557Z,101781.30
2023-05-09T02:28:26.020Z,101787.94
2023-05-09T02:30:53.025Z,101784.77
2023-05-09T02:33:20.002Z,101785.73
2023-05-09T02:35:47.101Z,101780.45
2023-05-09T02:38:14.194Z,101784.10
2023-05-09T02:40:42.726Z,101788.05
2023-05-09T02:43:09.966Z,101783.29
2023-05-09T02:45:37.194Z,101788.19
2023-05-09T02:48:06.896Z,101791.27
2023-05-09T02:50:35.677Z,101789.09
2023-05-09T02:53:02.716Z,101789.33
2023-05-09T02:55:29.891Z,101787.09
2023-05-09T02:58:09.256Z,101788.52
2023-05-09T03:00:39.644Z,101788.14
2023-05-09T03:03:06.910Z,101791.81
2023-05-09T03:05:34.236Z,101789.19
2023-05-09T03:08:01.194Z,101792.86
2023-05-09T03:10:28.365Z,101797.70
2023-05-09T03:12:56.123Z,101801.81
2023-05-09T03:15:23.359Z,101802.11
2023-05-09T03:17:50.484Z,101807.40
2023-05-09T03:20:18.043Z,101807.14
2023-05-09T03:22:45.068Z,101806.16
2023-05-09T03:25:12.336Z,101809.30
2023-05-09T03:27:39.570Z,101812.20
2023-05-09T03:30:09.625Z,101810.48
2023-05-09T03:32:36.899Z,101809.19
2023-05-09T03:35:04.469Z,101809.81
2023-05-09T03:37:32.526Z,101807.19
2023-05-09T03:39:59.547Z,101813.55
2023-05-09T03:42:26.797Z,101817.55
2023-05-09T03:44:56.162Z,101818.39
2023-05-09T03:47:23.533Z,101819.96
2023-05-09T03:49:50.982Z,101821.87
2023-05-09T03:52:20.189Z,101822.70
2023-05-09T03:54:47.514Z,101821.69
2023-05-09T03:57:15.265Z,101821.55
2023-05-09T03:59:42.328Z,101819.87
2023-05-09T04:02:09.880Z,101824.36
2023-05-09T04:04:37.134Z,101825.16
2023-05-09T04:07:04.646Z,101823.23
2023-05-09T04:09:31.789Z,101825.78
2023-05-09T04:11:59.213Z,101824.65
2023-05-09T04:14:26.555Z,101828.48
2023-05-09T04:16:53.775Z,101828.22
2023-05-09T04:19:20.953Z,101823.42
2023-05-09T04:21:48.179Z,101824.82
2023-05-09T04:24:16.024Z,101826.63
2023-05-09T04:26:44.354Z,101825.52
2023-05-09T04:29:13.939Z,101832.41
2023-05-09T04:31:41.521Z,101831.15
2023-05-09T04:34:09.818Z,101828.09
2023-05-09T04:36:37.824Z,101835.00
2023-05-09T04:39:08.351Z,101837.42
2023-05-09T04:41:38.322Z,101828.58
2023-05-09T04:44:06.525Z,101832.84
2023-05-09T04:46:34.266Z,101833.48
2023-05-09T04:49:01.388Z,101833.15
2023-05-09T04:51:28.414Z,101837.09
2023-05-09T04:53:55.502Z,101835.70
2023-05-09T04:56:26.031Z,101834.02
2023-05-09T04:58:53.499Z,101830.56
2023-05-09T05:01:20.616Z,101824.76
2023-05-09T05:03:47.728Z,101821.54
2023-05-09T05:06:14.926Z,101830.34
2023-05-09T05:08:42.259Z,101826.98
2023-05-09T05:11:11.048Z,101832.70
2023-05-09T05:13:38.978Z,101835.54
2023-05-09T05:16:06.649Z,101830.94
2023-05-09T05:18:33.790Z,101831.39
2023-05-09T05:21:01.133Z,101831.28
2023-05-09T05:23:28.160Z,101832.83
2023-05-09T05:25:55.670Z,101830.83
2023-05-09T05:28:23.739Z,101830.14
2023-05-09T05:30:51.403Z,101829.80
2023-05-09T05:33:19.533Z,101829.48
2023-05-09T05:35:47.939Z,101833.62
2023-05-09T05:38:16.980Z,101838.52
2023-05-09T05:40:45.554Z,101843.73
2023-05-09T05:43:14.675Z,101835.63
2023-05-09T05:45:43.408Z,101827.36
2023-05-09T05:48:16.386Z,101827.75
2023-05-09T05:50:43.866Z,101830.29
2023-05-09T05:53:15.176Z,101828.08
2023-05-09T05:55:42.329Z,101828.46
2023-05-09T05:58:10.478Z,101828.35
2023-05-09T06:00:37.860Z,101828.52
2023-05-09T06:03:05.157Z,101831.64
2023-05-09T06:05:44.257Z,101832.36
2023-05-09T06:08:11.693Z,101841.96
2023-05-09T06:10:38.721Z,101833.27
2023-05-09T06:13:05.932Z,101834.67
2023-05-09T06:15:33.579Z,101829.80
2023-05-09T06:18:00.740Z,101831.02
2023-05-09T06:20:28.041Z,101836.58
2023-05-09T06:22:55.029Z,101836.79
2023-05-09T06:25:22.296Z,101832.45
2023-05-09T06:27:50.472Z,101836.84
2023-05-09T06:30:25.419Z,101833.98
2023-05-09T06:32:53.385Z,101834.28
2023-05-09T06:35:21.891Z,101834.44
2023-05-09T06:37:51.077Z,101831.86
2023-05-09T06:40:19.884Z,101836.20
2023-05-09T06:42:47.178Z,101837.38
2023-05-09T06:45:15.056Z,101834.17
2023-05-09T06:47:43.413Z,101833.56
2023-05-09T06:50:10.493Z,101826.27
2023-05-09T06:52:37.467Z,101828.00
2023-05-09T06:55:04.999Z,101827.83
2023-05-09T06:57:32.346Z,101835.34
2023-05-09T07:00:02.628Z,101829.66
2023-05-09T07:02:30.000Z,101831.11
2023-05-09T07:04:57.022Z,101836.02
2023-05-09T07:07:24.785Z,101835.20
2023-05-09T07:09:55.248Z,101820.76
2023-05-09T07:12:29.334Z,101827.79
2023-05-09T07:14:56.504Z,101825.05
2023-05-09T07:17:26.029Z,101831.48
2023-05-09T07:19:53.933Z,101824.64
2023-05-09T07:22:21.028Z,101826.80
2023-05-09T07:24:48.092Z,101819.17
2023-05-09T07:27:15.113Z,101812.81
2023-05-09T07:29:42.081Z,101811.98
2023-05-09T07:32:09.375Z,101812.09
2023-05-09T07:34:36.783Z,101825.05
2023-05-09T07:37:03.913Z,101819.61
2023-05-09T07:39:30.941Z,101822.96
2023-05-09T07:41:57.960Z,101823.65
2023-05-09T07:44:25.083Z,101829.92
2023-05-09T07:46:52.242Z,101828.52
2023-05-09T07:49:19.393Z,101819.95
2023-05-09T07:51:46.420Z,101816.94
2023-05-09T07:54:13.736Z,101811.36
2023-05-09T07:56:40.709Z,101818.64
2023-05-09T07:59:07.750Z,101815.16
2023-05-09T08:01:34.835Z,101813.67
2023-05-09T08:04:01.979Z,101805.63
2023-05-09T08:06:29.165Z,101803.30
2023-05-09T08:08:56.197Z,101807.49
2023-05-09T08:11:23.596Z,101802.55
2023-05-09T08:13:50.658Z,101801.71
2023-05-09T08:16:17.768Z,101804.86
2023-05-09T08:18:44.960Z,101801.69
2023-05-09T08:21:12.343Z,101801.75
2023-05-09T08:23:40.728Z,101805.56
2023-05-09T08:26:07.873Z,101800.96
2023-05-09T08:28:34.906Z,101804.17
2023-05-09T08:31:02.042Z,101795.63
2023-05-09T08:33:29.158Z,101796.67
2023-05-09T08:35:56.561Z,101795.05
2023-05-09T08:38:24.498Z,101798.77
2023-05-09T08:40:51.653Z,101790.84
2023-05-09T08:43:19.404Z,101798.13
2023-05-09T08:45:50.183Z,101793.17
2023-05-09T08:48:17.518Z,101793.17
2023-05-09T08:50:44.585Z,101792.40
2023-05-09T08:53:11.969Z,101793.84
2023-05-09T08:55:39.007Z,101787.38
2023-05-09T08:58:06.242Z,101790.48
2023-05-09T09:00:33.755Z,101790.00
2023-05-09T09:03:02.180Z,101782.16
2023-05-09T09:08:01.619Z,101788.96
2023-05-09T09:10:29.887Z,101784.42
2023-05-09T09:12:57.644Z,101782.45
2023-05-09T09:15:26.352Z,101781.70
2023-05-09T09:17:53.460Z,101785.49
2023-05-09T09:20:20.665Z,101782.58
2023-05-09T09:22:48.842Z,101785.66
2023-05-09T09:25:16.880Z,101784.51
2023-05-09T09:27:43.990Z,101782.84
2023-05-09T09:30:13.308Z,101779.27
2023-05-09T09:32:40.898Z,101781.34
2023-05-09T09:35:09.160Z,101776.11
2023-05-09T09:37:36.899Z,101779.41
2023-05-09T09:40:05.257Z,101777.92
2023-05-09T09:42:42.554Z,101772.53
2023-05-09T09:45:12.078Z,101776.36
2023-05-09T09:47:39.674Z,101779.52
2023-05-09T09:50:14.567Z,101775.31
2023-05-09T09:52:51.679Z,101774.67
2023-05-09T09:55:19.404Z,101775.33
2023-05-09T09:57:48.261Z,101777.30
2023-05-09T10:00:16.630Z,101775.23
2023-05-09T10:02:54.087Z,101774.73
2023-05-09T10:05:24.005Z,101779.84
2023-05-09T10:08:00.550Z,101779.95
2023-05-09T10:10:28.870Z,101782.86
2023-05-09T10:12:57.791Z,101780.82
2023-05-09T10:15:25.392Z,101779.80
2023-05-09T10:17:56.671Z,101783.80
2023-05-09T10:20:24.079Z,101782.91
2023-05-09T10:22:57.404Z,101782.77
2023-05-09T10:25:44.215Z,101785.61
2023-05-09T10:28:13.194Z,101782.34
2023-05-09T10:31:03.138Z,101780.78
2023-05-09T10:33:49.324Z,101779.06
2023-05-09T10:36:18.309Z,101776.21
2023-05-09T10:38:45.360Z,101774.59
2023-05-09T10:41:12.793Z,101769.98
2023-05-09T10:43:39.863Z,101773.88
2023-05-09T10:46:07.092Z,101766.29
2023-05-09T10:48:34.154Z,101766.61
2023-05-09T10:51:01.578Z,101762.84
2023-05-09T10:53:48.715Z,101766.38
2023-05-09T10:56:29.208Z,101760.73
2023-05-09T10:58:56.843Z,101764.15
2023-05-09T11:01:31.753Z,101764.64
2023-05-09T11:03:59.384Z,101764.80
2023-05-09T11:06:42.148Z,101763.64
2023-05-09T11:09:33.393Z,101765.21
2023-05-09T11:12:08.768Z,101761.58
2023-05-09T11:14:35.921Z,101762.15
2023-05-09T11:17:06.064Z,101759.32
2023-05-09T11:19:37.784Z,101759.90
2023-05-09T11:22:34.493Z,101761.38
2023-05-09T11:25:30.563Z,101760.84
2023-05-09T11:28:04.974Z,101757.09
2023-05-09T11:30:40.970Z,101761.40
2023-05-09T11:33:24.771Z,101760.19
2023-05-09T11:36:18.697Z,101755.59
2023-05-09T11:38:46.988Z,101759.23
2023-05-09T11:41:14.170Z,101760.17
2023-05-09T11:43:42.509Z,101764.30
2023-05-09T11:46:09.733Z,101764.70
2023-05-09T11:48:40.604Z,101763.15
2023-05-09T11:51:07.739Z,101763.03
2023-05-09T11:53:34.834Z,101760.02
2023-05-09T11:56:05.301Z,101763.16
2023-05-09T11:58:32.440Z,101758.72
2023-05-09T12:00:59.702Z,101757.15
2023-05-09T12:03:27.429Z,101760.36
2023-05-09T12:05:55.035Z,101756.84
2023-05-09T12:08:23.270Z,101754.55
2023-05-09T12:10:50.664Z,101747.66
2023-05-09T12:13:19.427Z,101745.21
2023-05-09T12:15:46.538Z,101750.16
2023-05-09T12:18:13.637Z,101742.30
2023-05-09T12:20:51.417Z,101741.36
2023-05-09T12:23:19.091Z,101739.48
2023-05-09T12:25:56.232Z,101736.83
2023-05-09T12:28:23.545Z,101735.84
2023-05-09T12:30:51.426Z,101733.54
2023-05-09T12:33:18.588Z,101731.81
2023-05-09T12:35:49.280Z,101731.64
2023-05-09T12:38:22.628Z,101736.18
2023-05-09T12:40:50.721Z,101738.25
2023-05-09T12:43:17.876Z,101736.38
2023-05-09T12:45:44.894Z,101735.88
2023-05-09T12:48:14.265Z,101727.86
2023-05-09T12:50:41.662Z,101726.01
2023-05-09T12:53:08.876Z,101721.49
2023-05-09T12:55:41.521Z,101715.23
2023-05-09T12:58:08.675Z,101713.05
2023-05-09T13:00:45.336Z,101719.24
2023-05-09T13:03:30.767Z,101716.56
2023-05-09T13:06:01.705Z,101719.71
2023-05-09T13:08:29.029Z,101724.59
2023-05-09T13:11:07.790Z,101723.69
2023-05-09T13:13:41.785Z,101717.73
2023-05-09T13:16:10.691Z,101720.62
2023-05-09T13:18:38.805Z,101721.82
2023-05-09T13:21:07.156Z,101723.36
2023-05-09T13:23:34.580Z,101724.71
2023-05-09T13:26:01.630Z,101729.09
2023-05-09T13:28:28.644Z,101724.41
2023-05-09T13:30:55.779Z,101724.69
2023-05-09T13:33:26.456Z,101727.95
2023-05-09T13:35:54.214Z,101722.80
2023-05-09T13:38:21.253Z,101720.21
2023-05-09T13:40:48.374Z,101727.71
2023-05-09T13:43:15.613Z,101726.09
2023-05-09T13:45:42.681Z,101726.29
2023-05-09T13:48:09.770Z,101724.13
2023-05-09T13:50:36.850Z,101721.81
2023-05-09T13:53:03.941Z,101719.04
2023-05-09T13:55:31.165Z,101719.34
2023-05-09T13:57:58.168Z,101721.09
2023-05-09T14:00:26.791Z,101722.80
2023-05-09T14:02:59.954Z,101723.36
2023-05-09T14:05:27.544Z,101720.35
2023-05-09T14:07:55.186Z,101720.58
2023-05-09T14:10:22.464Z,101723.44
2023-05-09T14:12:49.527Z,101720.87
2023-05-09T14:15:16.710Z,101724.77
2023-05-09T14:17:43.849Z,101725.06
2023-05-09T14:20:11.337Z,101723.23
2023-05-09T14:22:38.493Z,101725.52
2023-05-09T14:25:06.357Z,101723.56
2023-05-09T14:27:36.998Z,101722.96
2023-05-09T14:30:04.968Z,101723.89
2023-05-09T14:32:32.056Z,101724.36
2023-05-09T14:34:59.180Z,101718.45
2023-05-09T14:37:27.230Z,101719.64
2023-05-09T14:39:54.335Z,101719.83
2023-05-09T14:42:21.615Z,101722.02
2023-05-09T14:44:48.771Z,101722.27
2023-05-09T14:47:17.130Z,101722.84
2023-05-09T14:49:44.452Z,101720.13
2023-05-09T14:52:11.607Z,101723.39
2023-05-09T14:54:38.944Z,101717.13
2023-05-09T14:57:07.640Z,101717.77
2023-05-09T14:59:36.827Z,101717.27
2023-05-09T15:02:04.311Z,101720.13
2023-05-09T15:04:31.570Z,101715.95
2023-05-09T15:06:59.275Z,101717.96
2023-05-09T15:09:26.858Z,101719.83
2023-05-09T15:11:55.028Z,101721.85
2023-05-09T15:14:22.308Z,101721.77
2023-05-09T15:16:52.421Z,101717.14
2023-05-09T15:19:19.628Z,101718.96
2023-05-09T15:21:46.819Z,101719.62
2023-05-09T15:24:13.918Z,101723.89
2023-05-09T15:26:40.934Z,101719.59
2023-05-09T15:29:08.008Z,101726.04
2023-05-09T15:31:35.720Z,101722.77
2023-05-09T15:34:02.856Z,101723.91
2023-05-09T15:36:30.335Z,101725.91
2023-05-09T15:38:57.527Z,101727.62
2023-05-09T15:41:24.652Z,101727.09
2023-05-09T15:43:52.475Z,101728.31
2023-05-09T15:46:19.550Z,101727.19
2023-05-09T15:48:46.574Z,101725.79
2023-05-09T15:51:14.022Z,101726.48
2023-05-09T15:53:41.454Z,101727.23
2023-05-09T15:56:08.688Z,101730.48
2023-05-09T15:58:36.073Z,101722.32
2023-05-09T16:01:06.310Z,101726.46
2023-05-09T16:03:34.056Z,101725.81
2023-05-09T16:06:01.261Z,101730.06
2023-05-09T16:08:28.901Z,101725.70
2023-05-09T16:10:55.959Z,101724.09
2023-05-09T16:13:23.176Z,101721.19
2023-05-09T16:15:51.180Z,101727.28
2023-05-09T16:18:18.891Z,101728.34
2023-05-09T16:20:46.162Z,101730.17
2023-05-09T16:23:13.422Z,101725.91
2023-05-09T16:25:40.412Z,101723.45
2023-05-09T16:28:09.500Z,101717.94
2023-05-09T16:30:37.000Z,101719.48
2023-05-09T16:33:04.268Z,101722.39
2023-05-09T16:35:31.506Z,101722.85
2023-05-09T16:37:58.637Z,101722.58
2023-05-09T16:40:25.702Z,101722.39
2023-05-09T16:42:53.913Z,101720.33
2023-05-09T16:45:21.123Z,101717.41
2023-05-09T16:47:48.192Z,101716.90
2023-05-09T16:50:15.440Z,101716.92
2023-05-09T16:52:42.660Z,101716.14
2023-05-09T16:55:09.812Z,101722.02
2023-05-09T16:57:37.345Z,101719.27
2023-05-09T17:00:08.008Z,101727.21
2023-05-09T17:02:36.512Z,101729.66
2023-05-09T17:05:05.371Z,101733.96
2023-05-09T17:07:32.591Z,101734.36
2023-05-09T17:09:59.844Z,101734.53
2023-05-09T17:12:27.817Z,101736.09
2023-05-09T17:14:54.881Z,101738.02
2023-05-09T17:17:21.978Z,101737.06
2023-05-09T17:19:49.077Z,101738.55
2023-05-09T17:22:16.727Z,101738.48
2023-05-09T17:24:44.196Z,101736.64
2023-05-09T17:27:11.661Z,101736.01
2023-05-09T17:29:38.857Z,101739.91
2023-05-09T17:32:06.148Z,101739.20
2023-05-09T17:34:33.909Z,101742.16
2023-05-09T17:37:02.496Z,101741.70
2023-05-09T17:39:29.718Z,101745.05
2023-05-09T17:41:56.828Z,101743.88
2023-05-09T17:44:24.266Z,101745.39
2023-05-09T17:46:51.513Z,101744.16
2023-05-09T17:49:19.288Z,101747.75
2023-05-09T17:51:46.421Z,101750.66
2023-05-09T17:54:13.589Z,101752.14
2023-05-09T17:56:40.927Z,101751.02
2023-05-09T17:59:08.190Z,101752.74
2023-05-09T18:01:35.501Z,101754.70
2023-05-09T18:04:03.054Z,101754.47
2023-05-09T18:06:30.347Z,101755.27
2023-05-09T18:08:57.667Z,101756.25
2023-05-09T18:11:25.396Z,101758.57
2023-05-09T18:13:52.644Z,101758.02
2023-05-09T18:16:19.805Z,101757.52
2023-05-09T18:18:47.019Z,101762.20
2023-05-09T18:21:14.168Z,101763.70
2023-05-09T18:23:41.545Z,101766.34
2023-05-09T18:26:08.771Z,101767.59
2023-05-09T18:28:41.851Z,101765.90
2023-05-09T18:31:13.406Z,101767.48
2023-05-09T18:33:41.959Z,101767.48
2023-05-09T18:36:10.151Z,101767.48
2023-05-09T18:38:39.480Z,101764.80
2023-05-09T18:41:13.612Z,101763.27
2023-05-09T18:43:46.201Z,101762.36
2023-05-09T18:46:21.410Z,101764.08
2023-05-09T18:48:51.200Z,101765.91
2023-05-09T18:51:18.856Z,101771.14
2023-05-09T18:53:47.465Z,101771.70
2023-05-09T18:56:14.919Z,101771.84
2023-05-09T18:58:46.937Z,101774.18
2023-05-09T19:01:13.953Z,101776.45
2023-05-09T19:03:45.564Z,101777.09
2023-05-09T19:06:13.960Z,101772.55
2023-05-09T19:08:43.743Z,101773.05
2023-05-09T19:11:14.868Z,101773.94
2023-05-09T19:13:48.622Z,101775.75
2023-05-09T19:16:16.507Z,101776.57
2023-05-09T19:18:45.266Z,101778.95
2023-05-09T19:21:15.081Z,101779.80
2023-05-09T19:23:43.029Z,101778.01
2023-05-09T19:26:10.267Z,101781.81
2023-05-09T19:28:37.948Z,101778.34
2023-05-09T19:31:05.219Z,101777.50
2023-05-09T19:33:33.777Z,101779.40
2023-05-09T19:36:01.183Z,101779.50
2023-05-09T19:38:28.308Z,101784.79
2023-05-09T19:40:55.753Z,101784.63
2023-05-09T19:43:22.980Z,101787.23
2023-05-09T19:45:50.258Z,101787.83
2023-05-09T19:48:17.381Z,101784.61
2023-05-09T19:50:45.311Z,101782.35
2023-05-09T19:53:12.461Z,101785.98
2023-05-09T19:55:39.551Z,101785.89
2023-05-09T19:58:06.642Z,101784.25
2023-05-09T20:00:36.198Z,101781.77
2023-05-09T20:03:04.336Z,101781.56
2023-05-09T20:05:44.315Z,101777.94
2023-05-09T20:08:12.290Z,101779.64
2023-05-09T20:10:39.531Z,101780.64
2023-05-09T20:13:07.032Z,101781.96
2023-05-09T20:15:34.717Z,101785.84
2023-05-09T20:18:03.907Z,101785.74
2023-05-09T20:20:33.911Z,101784.95
2023-05-09T20:23:02.144Z,101785.17
2023-05-09T20:25:29.632Z,101783.24
2023-05-09T20:27:56.792Z,101783.04
2023-05-09T20:30:23.929Z,101782.99
2023-05-09T20:32:51.267Z,101777.34
2023-05-09T20:35:18.537Z,101778.52
2023-05-09T20:37:48.575Z,101778.83
2023-05-09T20:40:20.426Z,101781.17
2023-05-09T20:42:51.348Z,101778.84
2023-05-09T20:45:18.686Z,101770.77
2023-05-09T20:47:45.768Z,101771.08
2023-05-09T20:50:12.932Z,101778.84
2023-05-09T20:52:40.373Z,101775.30
2023-05-09T20:55:07.928Z,101772.13
2023-05-09T20:57:34.960Z,101770.55
2023-05-09T21:00:02.177Z,101773.20
2023-05-09T21:02:29.242Z,101769.73
2023-05-09T21:04:57.140Z,101772.64
2023-05-09T21:07:24.356Z,101768.11
2023-05-09T21:09:51.716Z,101764.77
2023-05-09T21:12:18.976Z,101765.90
2023-05-09T21:14:46.249Z,101764.11
2023-05-09T21:17:13.337Z,101766.62
2023-05-09T21:19:40.580Z,101763.90
2023-05-09T21:22:07.770Z,101766.19
2023-05-09T21:24:34.982Z,101763.48
2023-05-09T21:27:02.020Z,101764.59
2023-05-09T21:29:29.058Z,101758.33
2023-05-09T21:31:56.058Z,101760.23
2023-05-09T21:34:23.108Z,101754.49
2023-05-09T21:36:50.105Z,101754.13
2023-05-09T21:39:17.157Z,101754.14
2023-05-09T21:41:44.213Z,101752.18
2023-05-09T21:44:14.174Z,101749.98
2023-05-09T21:46:41.511Z,101750.09
2023-05-09T21:49:08.688Z,101751.91
2023-05-09T21:51:35.774Z,101749.47
2023-05-09T21:54:03.275Z,101745.95
2023-05-09T21:56:30.610Z,101743.30
2023-05-09T21:58:57.771Z,101739.56
2023-05-09T22:01:24.898Z,101733.01
2023-05-09T22:03:52.227Z,101731.19
2023-05-09T22:06:19.344Z,101725.91
2023-05-09T22:08:46.431Z,101728.36
2023-05-09T22:11:14.930Z,101730.92
2023-05-09T22:13:42.639Z,101731.55
2023-05-09T22:16:09.900Z,101731.50
2023-05-09T22:18:37.322Z,101730.13
2023-05-09T22:21:04.555Z,101728.43
2023-05-09T22:23:31.621Z,101727.61
2023-05-09T22:25:58.677Z,101725.09
2023-05-09T22:28:28.750Z,101719.76
2023-05-09T22:30:55.791Z,101719.83
2023-05-09T22:33:22.844Z,101717.19
2023-05-09T22:35:49.827Z,101717.23
2023-05-09T22:38:16.838Z,101716.89
2023-05-09T22:40:43.868Z,101717.98
2023-05-09T22:43:11.861Z,101716.09
2023-05-09T22:45:39.009Z,101717.15
2023-05-09T22:48:06.494Z,101713.28
2023-05-09T22:50:33.600Z,101711.61
2023-05-09T22:53:00.959Z,101715.45
2023-05-09T22:55:28.038Z,101712.61
2023-05-09T22:57:55.020Z,101711.17
2023-05-09T23:00:22.226Z,101709.40
2023-05-09T23:02:49.936Z,101710.25
2023-05-09T23:05:17.076Z,101705.98
2023-05-09T23:07:44.622Z,101701.20
2023-05-09T23:10:11.705Z,101699.33
2023-05-09T23:12:38.741Z,101696.51
2023-05-09T23:15:07.556Z,101691.19
2023-05-09T23:17:34.675Z,101692.59
2023-05-09T23:20:01.815Z,101688.91
2023-05-09T23:22:28.904Z,101687.16
2023-05-09T23:24:55.996Z,101692.04
2023-05-09T23:27:23.288Z,101689.34
2023-05-09T23:29:50.309Z,101688.95
2023-05-09T23:32:17.304Z,101694.19
2023-05-09T23:34:44.317Z,101687.84
2023-05-09T23:37:12.095Z,101690.09
2023-05-09T23:39:39.113Z,101685.09
2023-05-09T23:42:06.202Z,101683.95
2023-05-09T23:44:33.662Z,101679.06
2023-05-09T23:47:02.240Z,101680.02
2023-05-09T23:49:29.290Z,101677.89
2023-05-09T23:51:56.334Z,101680.31
2023-05-09T23:54:24.615Z,101676.67
2023-05-09T23:56:51.769Z,101676.80
2023-05-09T23:59:18.698Z,101680.96
